ENBR

Bergen , Flesland Airport

Bergen, Norway
METAR ENBR 231350Z 16007KT 9999 FEW030 BKN045 03/M04 Q1027 NOSIG RMK WIND 1200FT 15012KT
Observed Flight Rules
Feb-23 @ 13:50 UTC (49 minutes ago) Visual Flight Rules
Wind Visibility Clouds
160° at 7 knots 10,000+ meters
  • Few at 3,000' AGL
  • Broken at 4,500' AGL
Temperatures Readings
Current 3°C / 37°F
Dewpoint -4°C / 25°F
Humidity 60%
Altimeter 30.32" Hg
Pressure 1027 hPa
Elevation 50
METAR ENBR 231350Z 16007KT 9999 FEW030 BKN045 03/M04 Q1027 NOSIG RMK WIND 1200FT 15012KT
Observed Flight Rules
Feb-23 @ 13:50 UTC
(49 minutes ago)
VFR
Wind Visibility
160° at 7 knots 10,000+ meters
Clouds
  • Few at 3,000' AGL
  • Broken at 4,500' AGL
Temperature Dewpoint
3°C / 37°F -4°C / 25°F
Humidity Altimeter Pressure
60% 30.32" Hg 1027 hPa